Terminal Aerodrome Forecast
Issued by NWS Grand Forks, ND

Home | Current Version | Previous Version | Text Only | Print | Product List | Glossary Off
Versions: 1 2 3 4 5 6 7 8 9 10 11 12 13 14 15

326
FTUS43 KFGF 221732
TAFFAR
TAF
KFAR 221732Z 2218/2318 28013G22KT P6SM FEW250
     FM230200 33012KT P6SM FEW200
     FM231700 36007KT P6SM SCT070=

USA.gov is the U.S. government's official web portal to all federal, state and local government web resources and services.